sensor_id;sensor_type;location;lat;lon;timestamp;temperature;humidity
18882;DHT22;9573;50.948;11.600;2023-03-26T00:00:49;8.80;99.90
18882;DHT22;9573;50.948;11.600;2023-03-26T00:03:18;8.80;99.90
18882;DHT22;9573;50.948;11.600;2023-03-26T00:05:47;8.70;99.90
18882;DHT22;9573;50.948;11.600;2023-03-26T00:08:15;8.60;99.90
18882;DHT22;9573;50.948;11.600;2023-03-26T00:10:44;8.60;99.90
18882;DHT22;9573;50.948;11.600;2023-03-26T00:13:12;8.70;99.90
18882;DHT22;9573;50.948;11.600;2023-03-26T00:15:40;8.70;99.90
18882;DHT22;9573;50.948;11.600;2023-03-26T00:18:07;8.60;99.90
18882;DHT22;9573;50.948;11.600;2023-03-26T00:20:34;8.70;99.90
18882;DHT22;9573;50.948;11.600;2023-03-26T00:23:03;8.70;99.90
18882;DHT22;9573;50.948;11.600;2023-03-26T00:25:30;8.70;99.90
18882;DHT22;9573;50.948;11.600;2023-03-26T00:28:00;8.70;99.90
18882;DHT22;9573;50.948;11.600;2023-03-26T00:30:28;8.70;99.90
18882;DHT22;9573;50.948;11.600;2023-03-26T00:32:55;8.80;99.90
18882;DHT22;9573;50.948;11.600;2023-03-26T00:35:23;8.80;99.90
18882;DHT22;9573;50.948;11.600;2023-03-26T00:37:50;8.80;99.90
18882;DHT22;9573;50.948;11.600;2023-03-26T00:40:18;8.80;99.90
18882;DHT22;9573;50.948;11.600;2023-03-26T00:42:45;8.90;99.90
18882;DHT22;9573;50.948;11.600;2023-03-26T00:45:14;8.90;99.90
18882;DHT22;9573;50.948;11.600;2023-03-26T00:47:41;8.80;99.90
18882;DHT22;9573;50.948;11.600;2023-03-26T00:50:09;8.90;99.90
18882;DHT22;9573;50.948;11.600;2023-03-26T00:52:40;8.80;99.90
18882;DHT22;9573;50.948;11.600;2023-03-26T00:55:08;8.70;99.90
18882;DHT22;9573;50.948;11.600;2023-03-26T00:57:35;8.70;99.90
18882;DHT22;9573;50.948;11.600;2023-03-26T01:00:05;8.60;99.90
18882;DHT22;9573;50.948;11.600;2023-03-26T01:02:42;8.60;99.90
18882;DHT22;9573;50.948;11.600;2023-03-26T01:05:38;8.60;99.90
18882;DHT22;9573;50.948;11.600;2023-03-26T01:08:15;8.60;99.90
18882;DHT22;9573;50.948;11.600;2023-03-26T01:10:45;8.60;99.90
18882;DHT22;9573;50.948;11.600;2023-03-26T01:13:16;8.60;99.90
18882;DHT22;9573;50.948;11.600;2023-03-26T01:15:45;8.60;99.90
18882;DHT22;9573;50.948;11.600;2023-03-26T01:18:18;8.60;99.90
18882;DHT22;9573;50.948;11.600;2023-03-26T01:20:52;8.60;99.90
18882;DHT22;9573;50.948;11.600;2023-03-26T01:23:28;8.60;99.90
18882;DHT22;9573;50.948;11.600;2023-03-26T01:26:04;8.60;99.90
18882;DHT22;9573;50.948;11.600;2023-03-26T01:28:38;8.60;99.90
18882;DHT22;9573;50.948;11.600;2023-03-26T01:31:12;8.70;99.90
18882;DHT22;9573;50.948;11.600;2023-03-26T01:33:45;8.70;99.90
18882;DHT22;9573;50.948;11.600;2023-03-26T01:36:18;8.70;99.90
18882;DHT22;9573;50.948;11.600;2023-03-26T01:38:52;8.70;99.90
18882;DHT22;9573;50.948;11.600;2023-03-26T01:41:32;8.70;99.90
18882;DHT22;9573;50.948;11.600;2023-03-26T01:44:08;8.70;99.90
18882;DHT22;9573;50.948;11.600;2023-03-26T01:46:37;8.70;99.90
18882;DHT22;9573;50.948;11.600;2023-03-26T01:49:05;8.70;99.90
18882;DHT22;9573;50.948;11.600;2023-03-26T01:51:39;8.70;99.90
18882;DHT22;9573;50.948;11.600;2023-03-26T01:54:10;8.60;99.90
18882;DHT22;9573;50.948;11.600;2023-03-26T01:56:49;8.40;99.90
18882;DHT22;9573;50.948;11.600;2023-03-26T01:59:36;8.30;99.90
18882;DHT22;9573;50.948;11.600;2023-03-26T02:02:12;8.20;99.90
18882;DHT22;9573;50.948;11.600;2023-03-26T02:04:48;8.30;99.90
18882;DHT22;9573;50.948;11.600;2023-03-26T02:07:22;8.20;99.90
18882;DHT22;9573;50.948;11.600;2023-03-26T02:09:56;8.30;99.90
18882;DHT22;9573;50.948;11.600;2023-03-26T02:12:27;8.30;99.90
18882;DHT22;9573;50.948;11.600;2023-03-26T02:14:55;8.30;99.90
18882;DHT22;9573;50.948;11.600;2023-03-26T02:17:24;8.40;99.90
18882;DHT22;9573;50.948;11.600;2023-03-26T02:19:54;8.40;99.90
18882;DHT22;9573;50.948;11.600;2023-03-26T02:22:22;8.50;99.90
18882;DHT22;9573;50.948;11.600;2023-03-26T02:24:55;8.50;99.90
18882;DHT22;9573;50.948;11.600;2023-03-26T02:27:22;8.50;99.90
18882;DHT22;9573;50.948;11.600;2023-03-26T02:29:51;8.50;99.90
18882;DHT22;9573;50.948;11.600;2023-03-26T02:32:18;8.60;99.90
18882;DHT22;9573;50.948;11.600;2023-03-26T02:34:45;8.50;99.90
18882;DHT22;9573;50.948;11.600;2023-03-26T02:37:12;8.60;99.90
18882;DHT22;9573;50.948;11.600;2023-03-26T02:39:39;8.60;99.90
18882;DHT22;9573;50.948;11.600;2023-03-26T02:42:06;8.60;99.90
18882;DHT22;9573;50.948;11.600;2023-03-26T02:44:33;8.60;99.90
18882;DHT22;9573;50.948;11.600;2023-03-26T02:47:04;8.60;99.90
18882;DHT22;9573;50.948;11.600;2023-03-26T02:49:31;8.60;99.90
18882;DHT22;9573;50.948;11.600;2023-03-26T02:51:59;8.60;99.90
18882;DHT22;9573;50.948;11.600;2023-03-26T02:54:30;8.60;99.90
18882;DHT22;9573;50.948;11.600;2023-03-26T02:56:57;8.60;99.90
18882;DHT22;9573;50.948;11.600;2023-03-26T02:59:25;8.60;99.90
18882;DHT22;9573;50.948;11.600;2023-03-26T03:01:52;8.60;99.90
18882;DHT22;9573;50.948;11.600;2023-03-26T03:04:21;8.60;99.90
18882;DHT22;9573;50.948;11.600;2023-03-26T03:06:48;8.60;99.90
18882;DHT22;9573;50.948;11.600;2023-03-26T03:09:22;8.60;99.90
18882;DHT22;9573;50.948;11.600;2023-03-26T03:11:50;8.60;99.90
18882;DHT22;9573;50.948;11.600;2023-03-26T03:14:18;8.60;99.90
18882;DHT22;9573;50.948;11.600;2023-03-26T03:16:45;8.60;99.90
18882;DHT22;9573;50.948;11.600;2023-03-26T03:19:13;8.60;99.90
18882;DHT22;9573;50.948;11.600;2023-03-26T03:21:41;8.60;99.90
18882;DHT22;9573;50.948;11.600;2023-03-26T03:24:09;8.60;99.90
18882;DHT22;9573;50.948;11.600;2023-03-26T03:26:38;8.60;99.90
18882;DHT22;9573;50.948;11.600;2023-03-26T03:29:05;8.70;99.90
18882;DHT22;9573;50.948;11.600;2023-03-26T03:31:32;8.60;99.90
18882;DHT22;9573;50.948;11.600;2023-03-26T03:33:59;8.70;99.90
18882;DHT22;9573;50.948;11.600;2023-03-26T03:36:27;8.70;99.90
18882;DHT22;9573;50.948;11.600;2023-03-26T03:38:56;8.80;99.90
18882;DHT22;9573;50.948;11.600;2023-03-26T03:41:27;8.70;99.90
18882;DHT22;9573;50.948;11.600;2023-03-26T03:43:54;8.80;99.90
18882;DHT22;9573;50.948;11.600;2023-03-26T03:46:23;8.80;99.90
18882;DHT22;9573;50.948;11.600;2023-03-26T03:48:50;8.80;99.90
18882;DHT22;9573;50.948;11.600;2023-03-26T03:51:17;8.80;99.90
18882;DHT22;9573;50.948;11.600;2023-03-26T03:53:44;8.80;99.90
18882;DHT22;9573;50.948;11.600;2023-03-26T03:56:13;8.80;99.90
18882;DHT22;9573;50.948;11.600;2023-03-26T03:58:42;8.90;99.90
18882;DHT22;9573;50.948;11.600;2023-03-26T04:01:10;8.90;99.90
18882;DHT22;9573;50.948;11.600;2023-03-26T04:03:38;8.90;99.90
18882;DHT22;9573;50.948;11.600;2023-03-26T04:06:06;8.80;99.90
18882;DHT22;9573;50.948;11.600;2023-03-26T04:08:35;8.80;99.90
18882;DHT22;9573;50.948;11.600;2023-03-26T04:11:03;8.80;99.90
18882;DHT22;9573;50.948;11.600;2023-03-26T04:13:31;8.80;99.90
18882;DHT22;9573;50.948;11.600;2023-03-26T04:15:58;8.80;99.90
18882;DHT22;9573;50.948;11.600;2023-03-26T04:18:26;8.70;99.90
18882;DHT22;9573;50.948;11.600;2023-03-26T04:20:54;8.70;99.90
18882;DHT22;9573;50.948;11.600;2023-03-26T04:23:27;8.70;99.90
18882;DHT22;9573;50.948;11.600;2023-03-26T04:25:55;8.70;99.90
18882;DHT22;9573;50.948;11.600;2023-03-26T04:28:27;8.70;99.90
18882;DHT22;9573;50.948;11.600;2023-03-26T04:30:59;8.70;99.90
18882;DHT22;9573;50.948;11.600;2023-03-26T04:33:29;8.70;99.90
18882;DHT22;9573;50.948;11.600;2023-03-26T04:35:57;8.70;99.90
18882;DHT22;9573;50.948;11.600;2023-03-26T04:38:28;8.70;99.90
18882;DHT22;9573;50.948;11.600;2023-03-26T04:40:58;8.70;99.90
18882;DHT22;9573;50.948;11.600;2023-03-26T04:43:27;8.70;99.90
18882;DHT22;9573;50.948;11.600;2023-03-26T04:45:55;8.80;99.90
18882;DHT22;9573;50.948;11.600;2023-03-26T04:48:27;8.80;99.90
18882;DHT22;9573;50.948;11.600;2023-03-26T04:50:55;8.80;99.90
18882;DHT22;9573;50.948;11.600;2023-03-26T04:53:22;8.80;99.90
18882;DHT22;9573;50.948;11.600;2023-03-26T04:55:52;8.90;99.90
18882;DHT22;9573;50.948;11.600;2023-03-26T04:58:22;8.90;99.90
18882;DHT22;9573;50.948;11.600;2023-03-26T05:00:54;8.90;99.90
18882;DHT22;9573;50.948;11.600;2023-03-26T05:03:26;8.90;99.90
18882;DHT22;9573;50.948;11.600;2023-03-26T05:05:56;8.90;99.90
18882;DHT22;9573;50.948;11.600;2023-03-26T05:08:24;8.90;99.90
18882;DHT22;9573;50.948;11.600;2023-03-26T05:10:53;8.90;99.90
18882;DHT22;9573;50.948;11.600;2023-03-26T05:13:20;8.90;99.90
18882;DHT22;9573;50.948;11.600;2023-03-26T05:15:47;8.90;99.90
18882;DHT22;9573;50.948;11.600;2023-03-26T05:18:15;8.90;99.90
18882;DHT22;9573;50.948;11.600;2023-03-26T05:20:43;8.90;99.90
18882;DHT22;9573;50.948;11.600;2023-03-26T05:23:10;9.00;99.90
18882;DHT22;9573;50.948;11.600;2023-03-26T05:25:38;8.90;99.90
18882;DHT22;9573;50.948;11.600;2023-03-26T05:28:05;8.90;99.90
18882;DHT22;9573;50.948;11.600;2023-03-26T05:30:32;8.90;99.90
18882;DHT22;9573;50.948;11.600;2023-03-26T05:32:59;8.90;99.90
18882;DHT22;9573;50.948;11.600;2023-03-26T05:35:28;9.00;99.90
18882;DHT22;9573;50.948;11.600;2023-03-26T05:37:57;9.00;99.90
18882;DHT22;9573;50.948;11.600;2023-03-26T05:40:24;9.00;99.90
18882;DHT22;9573;50.948;11.600;2023-03-26T05:42:51;9.10;99.90
18882;DHT22;9573;50.948;11.600;2023-03-26T05:45:18;9.10;99.90
18882;DHT22;9573;50.948;11.600;2023-03-26T05:47:46;9.10;99.90
18882;DHT22;9573;50.948;11.600;2023-03-26T05:50:14;9.20;99.90
18882;DHT22;9573;50.948;11.600;2023-03-26T05:52:41;9.20;99.90
18882;DHT22;9573;50.948;11.600;2023-03-26T05:55:10;9.20;99.90
18882;DHT22;9573;50.948;11.600;2023-03-26T05:57:38;9.30;99.90
18882;DHT22;9573;50.948;11.600;2023-03-26T06:00:08;9.30;99.90
18882;DHT22;9573;50.948;11.600;2023-03-26T06:02:36;9.40;99.90
18882;DHT22;9573;50.948;11.600;2023-03-26T06:05:04;9.40;99.90
18882;DHT22;9573;50.948;11.600;2023-03-26T06:07:32;9.50;99.90
18882;DHT22;9573;50.948;11.600;2023-03-26T06:09:59;9.50;99.90
18882;DHT22;9573;50.948;11.600;2023-03-26T06:12:28;9.60;99.90
18882;DHT22;9573;50.948;11.600;2023-03-26T06:14:55;9.60;99.90
18882;DHT22;9573;50.948;11.600;2023-03-26T06:17:23;9.70;99.90
18882;DHT22;9573;50.948;11.600;2023-03-26T06:19:51;9.80;99.90
18882;DHT22;9573;50.948;11.600;2023-03-26T06:22:18;9.90;99.90
18882;DHT22;9573;50.948;11.600;2023-03-26T06:24:46;9.90;99.90
18882;DHT22;9573;50.948;11.600;2023-03-26T06:27:17;10.10;99.90
18882;DHT22;9573;50.948;11.600;2023-03-26T06:29:45;10.20;99.90
18882;DHT22;9573;50.948;11.600;2023-03-26T06:32:14;10.40;99.90
18882;DHT22;9573;50.948;11.600;2023-03-26T06:34:41;10.60;99.90
18882;DHT22;9573;50.948;11.600;2023-03-26T06:37:08;10.80;99.90
18882;DHT22;9573;50.948;11.600;2023-03-26T06:39:35;10.90;99.90
18882;DHT22;9573;50.948;11.600;2023-03-26T06:42:03;11.10;99.90
18882;DHT22;9573;50.948;11.600;2023-03-26T06:44:30;11.20;99.90
18882;DHT22;9573;50.948;11.600;2023-03-26T06:46:59;11.20;99.90
18882;DHT22;9573;50.948;11.600;2023-03-26T06:49:26;11.30;99.90
18882;DHT22;9573;50.948;11.600;2023-03-26T06:51:53;11.50;99.90
18882;DHT22;9573;50.948;11.600;2023-03-26T06:54:20;11.60;99.90
18882;DHT22;9573;50.948;11.600;2023-03-26T06:56:47;11.80;99.90
18882;DHT22;9573;50.948;11.600;2023-03-26T06:59:14;11.90;99.90
18882;DHT22;9573;50.948;11.600;2023-03-26T07:01:42;12.00;99.90
18882;DHT22;9573;50.948;11.600;2023-03-26T07:04:10;12.30;99.90
18882;DHT22;9573;50.948;11.600;2023-03-26T07:06:45;12.90;99.90
18882;DHT22;9573;50.948;11.600;2023-03-26T07:09:15;13.70;99.90
18882;DHT22;9573;50.948;11.600;2023-03-26T07:11:42;15.10;99.90
18882;DHT22;9573;50.948;11.600;2023-03-26T07:14:09;18.30;99.90
18882;DHT22;9573;50.948;11.600;2023-03-26T07:16:36;21.40;99.90
18882;DHT22;9573;50.948;11.600;2023-03-26T07:19:03;21.30;99.90
18882;DHT22;9573;50.948;11.600;2023-03-26T07:21:32;21.90;99.90
18882;DHT22;9573;50.948;11.600;2023-03-26T07:24:00;23.70;97.40
18882;DHT22;9573;50.948;11.600;2023-03-26T07:26:35;22.50;95.60
18882;DHT22;9573;50.948;11.600;2023-03-26T07:29:09;21.00;97.30
18882;DHT22;9573;50.948;11.600;2023-03-26T07:31:43;19.60;97.90
18882;DHT22;9573;50.948;11.600;2023-03-26T07:34:25;18.60;99.30
18882;DHT22;9573;50.948;11.600;2023-03-26T07:37:04;17.80;99.90
18882;DHT22;9573;50.948;11.600;2023-03-26T07:39:43;18.00;99.90
18882;DHT22;9573;50.948;11.600;2023-03-26T07:42:26;21.50;96.60
18882;DHT22;9573;50.948;11.600;2023-03-26T07:45:10;22.20;92.70
18882;DHT22;9573;50.948;11.600;2023-03-26T07:47:42;21.20;93.20
18882;DHT22;9573;50.948;11.600;2023-03-26T07:50:14;20.10;94.30
18882;DHT22;9573;50.948;11.600;2023-03-26T07:52:44;19.10;95.60
18882;DHT22;9573;50.948;11.600;2023-03-26T07:55:14;19.00;96.50
18882;DHT22;9573;50.948;11.600;2023-03-26T07:57:49;19.20;96.10
18882;DHT22;9573;50.948;11.600;2023-03-26T08:00:27;19.20;95.00
18882;DHT22;9573;50.948;11.600;2023-03-26T08:03:24;18.20;95.60
18882;DHT22;9573;50.948;11.600;2023-03-26T08:06:04;17.60;96.90
18882;DHT22;9573;50.948;11.600;2023-03-26T08:08:44;17.40;97.60
18882;DHT22;9573;50.948;11.600;2023-03-26T08:11:28;18.10;97.80
18882;DHT22;9573;50.948;11.600;2023-03-26T08:14:07;18.70;95.80
18882;DHT22;9573;50.948;11.600;2023-03-26T08:16:52;20.40;94.80
18882;DHT22;9573;50.948;11.600;2023-03-26T08:19:35;22.80;91.90
18882;DHT22;9573;50.948;11.600;2023-03-26T08:22:11;25.20;86.20
18882;DHT22;9573;50.948;11.600;2023-03-26T08:24:55;26.40;78.20
18882;DHT22;9573;50.948;11.600;2023-03-26T08:27:35;27.10;73.80
18882;DHT22;9573;50.948;11.600;2023-03-26T08:30:08;27.00;70.50
18882;DHT22;9573;50.948;11.600;2023-03-26T08:32:39;26.20;69.60
18882;DHT22;9573;50.948;11.600;2023-03-26T08:35:10;25.70;68.90
18882;DHT22;9573;50.948;11.600;2023-03-26T08:37:42;24.90;70.00
18882;DHT22;9573;50.948;11.600;2023-03-26T08:40:17;24.30;70.60
18882;DHT22;9573;50.948;11.600;2023-03-26T08:43:14;24.30;71.80
18882;DHT22;9573;50.948;11.600;2023-03-26T08:46:33;24.80;70.20
18882;DHT22;9573;50.948;11.600;2023-03-26T08:49:41;24.80;69.00
18882;DHT22;9573;50.948;11.600;2023-03-26T08:52:36;25.30;67.30
18882;DHT22;9573;50.948;11.600;2023-03-26T08:55:40;25.70;66.50
18882;DHT22;9573;50.948;11.600;2023-03-26T08:58:39;25.30;65.80
18882;DHT22;9573;50.948;11.600;2023-03-26T09:08:12;21.30;75.50
18882;DHT22;9573;50.948;11.600;2023-03-26T09:11:13;20.40;78.10
18882;DHT22;9573;50.948;11.600;2023-03-26T09:27:21;18.10;86.20
18882;DHT22;9573;50.948;11.600;2023-03-26T09:33:30;17.10;88.70
18882;DHT22;9573;50.948;11.600;2023-03-26T09:36:17;16.70;90.20
18882;DHT22;9573;50.948;11.600;2023-03-26T09:38:51;16.30;90.50
18882;DHT22;9573;50.948;11.600;2023-03-26T09:41:31;16.10;91.20
18882;DHT22;9573;50.948;11.600;2023-03-26T09:44:30;15.80;91.50
18882;DHT22;9573;50.948;11.600;2023-03-26T09:47:34;15.80;91.80
18882;DHT22;9573;50.948;11.600;2023-03-26T09:50:25;15.80;91.90
18882;DHT22;9573;50.948;11.600;2023-03-26T09:53:19;15.60;92.30
18882;DHT22;9573;50.948;11.600;2023-03-26T09:56:04;15.70;92.60
18882;DHT22;9573;50.948;11.600;2023-03-26T09:59:15;16.00;92.20
18882;DHT22;9573;50.948;11.600;2023-03-26T10:01:56;16.10;91.50
18882;DHT22;9573;50.948;11.600;2023-03-26T10:08:00;16.90;90.90
18882;DHT22;9573;50.948;11.600;2023-03-26T10:10:37;17.30;90.10
18882;DHT22;9573;50.948;11.600;2023-03-26T10:13:20;17.40;89.70
18882;DHT22;9573;50.948;11.600;2023-03-26T10:16:15;17.60;90.00
18882;DHT22;9573;50.948;11.600;2023-03-26T10:19:01;17.90;89.70
18882;DHT22;9573;50.948;11.600;2023-03-26T10:21:41;18.30;87.70
18882;DHT22;9573;50.948;11.600;2023-03-26T10:24:30;18.50;86.70
18882;DHT22;9573;50.948;11.600;2023-03-26T10:27:36;18.60;85.50
18882;DHT22;9573;50.948;11.600;2023-03-26T10:30:32;18.50;85.30
18882;DHT22;9573;50.948;11.600;2023-03-26T10:33:24;18.20;85.80
18882;DHT22;9573;50.948;11.600;2023-03-26T10:36:17;17.60;86.90
18882;DHT22;9573;50.948;11.600;2023-03-26T10:39:02;17.20;87.00
18882;DHT22;9573;50.948;11.600;2023-03-26T10:41:48;16.90;89.10
18882;DHT22;9573;50.948;11.600;2023-03-26T10:44:32;16.50;90.10
18882;DHT22;9573;50.948;11.600;2023-03-26T10:47:31;16.40;90.70
18882;DHT22;9573;50.948;11.600;2023-03-26T10:50:22;16.10;90.60
18882;DHT22;9573;50.948;11.600;2023-03-26T10:52:57;15.90;91.10
18882;DHT22;9573;50.948;11.600;2023-03-26T10:55:30;15.80;91.10
18882;DHT22;9573;50.948;11.600;2023-03-26T10:58:08;15.50;91.40
18882;DHT22;9573;50.948;11.600;2023-03-26T11:00:44;15.50;92.10
18882;DHT22;9573;50.948;11.600;2023-03-26T11:03:45;15.40;92.30
18882;DHT22;9573;50.948;11.600;2023-03-26T11:06:34;15.40;92.60
18882;DHT22;9573;50.948;11.600;2023-03-26T11:09:15;15.40;92.20
18882;DHT22;9573;50.948;11.600;2023-03-26T11:11:54;15.30;92.80
18882;DHT22;9573;50.948;11.600;2023-03-26T11:14:29;15.00;93.30
18882;DHT22;9573;50.948;11.600;2023-03-26T11:17:04;14.80;95.00
18882;DHT22;9573;50.948;11.600;2023-03-26T11:19:44;14.60;96.30
18882;DHT22;9573;50.948;11.600;2023-03-26T11:22:24;14.30;95.60
18882;DHT22;9573;50.948;11.600;2023-03-26T11:25:08;14.00;95.80
18882;DHT22;9573;50.948;11.600;2023-03-26T11:28:03;13.80;96.20
18882;DHT22;9573;50.948;11.600;2023-03-26T11:30:46;13.80;96.60
18882;DHT22;9573;50.948;11.600;2023-03-26T11:33:17;13.60;97.30
18882;DHT22;9573;50.948;11.600;2023-03-26T11:35:49;13.60;97.60
18882;DHT22;9573;50.948;11.600;2023-03-26T11:38:23;13.50;97.70
18882;DHT22;9573;50.948;11.600;2023-03-26T11:40:54;13.40;98.20
18882;DHT22;9573;50.948;11.600;2023-03-26T11:43:26;13.30;98.60
18882;DHT22;9573;50.948;11.600;2023-03-26T11:45:57;13.20;99.40
18882;DHT22;9573;50.948;11.600;2023-03-26T11:48:29;13.30;99.90
18882;DHT22;9573;50.948;11.600;2023-03-26T11:51:01;13.40;99.90
18882;DHT22;9573;50.948;11.600;2023-03-26T11:53:34;13.30;99.90
18882;DHT22;9573;50.948;11.600;2023-03-26T11:56:05;13.30;99.90
18882;DHT22;9573;50.948;11.600;2023-03-26T11:58:44;13.20;99.90
18882;DHT22;9573;50.948;11.600;2023-03-26T12:01:16;13.10;99.90
18882;DHT22;9573;50.948;11.600;2023-03-26T12:03:57;13.00;99.90
18882;DHT22;9573;50.948;11.600;2023-03-26T12:06:29;12.90;99.90
18882;DHT22;9573;50.948;11.600;2023-03-26T12:08:58;12.80;99.90
18882;DHT22;9573;50.948;11.600;2023-03-26T12:11:28;12.60;99.90
18882;DHT22;9573;50.948;11.600;2023-03-26T12:14:01;12.60;99.90
18882;DHT22;9573;50.948;11.600;2023-03-26T12:16:30;12.60;99.90
18882;DHT22;9573;50.948;11.600;2023-03-26T12:19:00;12.50;99.90
18882;DHT22;9573;50.948;11.600;2023-03-26T12:21:43;12.40;99.90
18882;DHT22;9573;50.948;11.600;2023-03-26T12:24:25;12.40;99.90
18882;DHT22;9573;50.948;11.600;2023-03-26T12:26:57;12.50;99.90
18882;DHT22;9573;50.948;11.600;2023-03-26T12:29:27;12.50;99.90
18882;DHT22;9573;50.948;11.600;2023-03-26T12:32:04;12.50;99.90
18882;DHT22;9573;50.948;11.600;2023-03-26T12:34:34;12.50;99.90
18882;DHT22;9573;50.948;11.600;2023-03-26T12:37:03;12.40;99.90
18882;DHT22;9573;50.948;11.600;2023-03-26T12:39:36;12.40;99.90
18882;DHT22;9573;50.948;11.600;2023-03-26T12:42:05;12.30;99.90
18882;DHT22;9573;50.948;11.600;2023-03-26T12:44:51;12.20;99.90
18882;DHT22;9573;50.948;11.600;2023-03-26T12:47:21;12.20;99.90
18882;DHT22;9573;50.948;11.600;2023-03-26T12:49:51;12.20;99.90
18882;DHT22;9573;50.948;11.600;2023-03-26T12:55:40;12.00;99.90
18882;DHT22;9573;50.948;11.600;2023-03-26T12:58:30;11.90;99.90
18882;DHT22;9573;50.948;11.600;2023-03-26T13:01:10;11.70;99.90
18882;DHT22;9573;50.948;11.600;2023-03-26T13:04:01;11.70;99.90
18882;DHT22;9573;50.948;11.600;2023-03-26T13:06:45;11.50;99.90
18882;DHT22;9573;50.948;11.600;2023-03-26T13:12:42;11.10;99.90
18882;DHT22;9573;50.948;11.600;2023-03-26T13:15:21;10.90;99.90
18882;DHT22;9573;50.948;11.600;2023-03-26T13:18:04;10.90;99.90
18882;DHT22;9573;50.948;11.600;2023-03-26T13:20:48;10.80;99.90
18882;DHT22;9573;50.948;11.600;2023-03-26T13:23:29;10.70;99.90
18882;DHT22;9573;50.948;11.600;2023-03-26T13:26:10;10.80;99.90
18882;DHT22;9573;50.948;11.600;2023-03-26T13:28:50;10.70;99.90
18882;DHT22;9573;50.948;11.600;2023-03-26T13:31:26;10.70;99.90
18882;DHT22;9573;50.948;11.600;2023-03-26T13:34:02;10.50;99.90
18882;DHT22;9573;50.948;11.600;2023-03-26T13:36:43;10.50;99.90
18882;DHT22;9573;50.948;11.600;2023-03-26T13:39:22;10.40;99.90
18882;DHT22;9573;50.948;11.600;2023-03-26T13:42:04;10.20;99.90
18882;DHT22;9573;50.948;11.600;2023-03-26T13:44:54;10.10;99.90
18882;DHT22;9573;50.948;11.600;2023-03-26T13:47:30;10.10;99.90
18882;DHT22;9573;50.948;11.600;2023-03-26T13:50:05;10.00;99.90
18882;DHT22;9573;50.948;11.600;2023-03-26T13:52:44;9.90;99.90
18882;DHT22;9573;50.948;11.600;2023-03-26T13:55:20;9.90;99.90
18882;DHT22;9573;50.948;11.600;2023-03-26T13:57:55;9.90;99.90
18882;DHT22;9573;50.948;11.600;2023-03-26T14:00:31;9.80;99.90
18882;DHT22;9573;50.948;11.600;2023-03-26T14:03:22;9.80;99.90
18882;DHT22;9573;50.948;11.600;2023-03-26T14:05:55;9.80;99.90
18882;DHT22;9573;50.948;11.600;2023-03-26T14:08:27;9.80;99.90
18882;DHT22;9573;50.948;11.600;2023-03-26T14:11:02;9.90;99.90
18882;DHT22;9573;50.948;11.600;2023-03-26T14:13:39;9.90;99.90
18882;DHT22;9573;50.948;11.600;2023-03-26T14:16:15;10.10;99.90
18882;DHT22;9573;50.948;11.600;2023-03-26T14:18:47;10.10;99.90
18882;DHT22;9573;50.948;11.600;2023-03-26T14:21:40;10.10;99.90
18882;DHT22;9573;50.948;11.600;2023-03-26T14:24:42;10.10;99.90
18882;DHT22;9573;50.948;11.600;2023-03-26T14:27:30;10.20;99.90
18882;DHT22;9573;50.948;11.600;2023-03-26T14:33:36;10.00;99.90
18882;DHT22;9573;50.948;11.600;2023-03-26T14:36:21;9.80;99.90
18882;DHT22;9573;50.948;11.600;2023-03-26T14:39:23;9.70;99.90
18882;DHT22;9573;50.948;11.600;2023-03-26T14:42:01;9.70;99.90
18882;DHT22;9573;50.948;11.600;2023-03-26T14:45:02;9.80;99.90
18882;DHT22;9573;50.948;11.600;2023-03-26T14:47:36;9.80;99.90
18882;DHT22;9573;50.948;11.600;2023-03-26T14:50:41;9.80;99.90
18882;DHT22;9573;50.948;11.600;2023-03-26T14:53:27;9.80;99.90
18882;DHT22;9573;50.948;11.600;2023-03-26T15:00:02;9.70;99.90
18882;DHT22;9573;50.948;11.600;2023-03-26T15:03:06;9.70;99.90
18882;DHT22;9573;50.948;11.600;2023-03-26T15:06:25;9.70;99.90
18882;DHT22;9573;50.948;11.600;2023-03-26T15:13:40;9.70;99.90
18882;DHT22;9573;50.948;11.600;2023-03-26T15:16:40;9.70;99.90
18882;DHT22;9573;50.948;11.600;2023-03-26T15:23:22;9.80;99.90
18882;DHT22;9573;50.948;11.600;2023-03-26T15:26:44;9.80;99.90
18882;DHT22;9573;50.948;11.600;2023-03-26T15:29:51;9.70;99.90
18882;DHT22;9573;50.948;11.600;2023-03-26T15:32:56;9.70;99.90
18882;DHT22;9573;50.948;11.600;2023-03-26T15:39:51;9.70;99.90
18882;DHT22;9573;50.948;11.600;2023-03-26T15:42:42;9.90;99.90
18882;DHT22;9573;50.948;11.600;2023-03-26T15:45:32;9.90;99.90
18882;DHT22;9573;50.948;11.600;2023-03-26T15:51:24;10.00;99.90
18882;DHT22;9573;50.948;11.600;2023-03-26T15:54:19;10.10;99.90
18882;DHT22;9573;50.948;11.600;2023-03-26T15:57:05;10.10;99.90
18882;DHT22;9573;50.948;11.600;2023-03-26T15:59:51;10.10;99.90
18882;DHT22;9573;50.948;11.600;2023-03-26T16:02:28;10.10;99.90
18882;DHT22;9573;50.948;11.600;2023-03-26T16:05:03;10.20;99.90
18882;DHT22;9573;50.948;11.600;2023-03-26T16:07:55;10.30;99.90
18882;DHT22;9573;50.948;11.600;2023-03-26T16:10:35;10.30;99.90
18882;DHT22;9573;50.948;11.600;2023-03-26T16:13:36;10.30;99.90
18882;DHT22;9573;50.948;11.600;2023-03-26T16:16:22;10.30;99.90
18882;DHT22;9573;50.948;11.600;2023-03-26T16:18:57;10.20;99.90
18882;DHT22;9573;50.948;11.600;2023-03-26T16:21:52;10.20;99.90
18882;DHT22;9573;50.948;11.600;2023-03-26T16:24:27;10.10;99.90
18882;DHT22;9573;50.948;11.600;2023-03-26T16:30:29;10.00;99.90
18882;DHT22;9573;50.948;11.600;2023-03-26T16:33:08;10.00;99.90
18882;DHT22;9573;50.948;11.600;2023-03-26T16:36:02;10.00;99.90
18882;DHT22;9573;50.948;11.600;2023-03-26T16:38:52;10.00;99.90
18882;DHT22;9573;50.948;11.600;2023-03-26T16:41:22;10.10;99.90
18882;DHT22;9573;50.948;11.600;2023-03-26T16:44:06;10.10;99.90
18882;DHT22;9573;50.948;11.600;2023-03-26T16:46:50;10.00;99.90
18882;DHT22;9573;50.948;11.600;2023-03-26T16:49:33;10.00;99.90
18882;DHT22;9573;50.948;11.600;2023-03-26T16:52:21;9.90;99.90
18882;DHT22;9573;50.948;11.600;2023-03-26T16:55:05;9.80;99.90
18882;DHT22;9573;50.948;11.600;2023-03-26T16:57:45;9.80;99.90
18882;DHT22;9573;50.948;11.600;2023-03-26T17:00:35;9.80;99.90
18882;DHT22;9573;50.948;11.600;2023-03-26T17:03:28;9.70;99.90
18882;DHT22;9573;50.948;11.600;2023-03-26T17:09:22;9.60;99.90
18882;DHT22;9573;50.948;11.600;2023-03-26T17:11:59;9.60;99.90
18882;DHT22;9573;50.948;11.600;2023-03-26T17:14:41;9.50;99.90
18882;DHT22;9573;50.948;11.600;2023-03-26T17:17:29;9.50;99.90
18882;DHT22;9573;50.948;11.600;2023-03-26T17:20:16;9.50;99.90
18882;DHT22;9573;50.948;11.600;2023-03-26T17:22:55;9.50;99.90
18882;DHT22;9573;50.948;11.600;2023-03-26T17:25:33;9.40;99.90
18882;DHT22;9573;50.948;11.600;2023-03-26T17:28:19;9.30;99.90
18882;DHT22;9573;50.948;11.600;2023-03-26T17:31:01;9.20;99.90
18882;DHT22;9573;50.948;11.600;2023-03-26T17:33:32;9.30;99.90
18882;DHT22;9573;50.948;11.600;2023-03-26T17:36:29;9.20;99.90
18882;DHT22;9573;50.948;11.600;2023-03-26T17:39:17;9.20;99.90
18882;DHT22;9573;50.948;11.600;2023-03-26T17:41:52;9.10;99.90